Time;durP1;ratioP1;P1;durP2;ratioP2;P2;SDS_P1;SDS_P2;PMS_P1;PMS_P2;Temp;Humidity;BMP_temperature;BMP_pressure;BME280_temperature;BME280_humidity;BME280_pressure;Samples;Min_cycle;Max_cycle;Signal;HPM_P1;HPM_P2
2022/07/31 00:00:44;;;;;;;4.82;2.40;;;;;;;18.46;62.96;93224.75;2071682;69;20622;-75
2022/07/31 00:03:11;;;;;;;2.53;2.15;;;;;;;18.16;64.46;93224.25;2068436;69;20231;-74
2022/07/31 00:05:40;;;;;;;4.25;2.40;;;;;;;18.19;63.92;93219.34;2071368;69;20207;-74
2022/07/31 00:08:07;;;;;;;2.83;2.35;;;;;;;18.20;64.17;93209.44;2071926;69;20505;-75
2022/07/31 00:10:32;;;;;;;6.90;2.50;;;;;;;18.21;64.61;93219.44;2071359;69;20665;-76
2022/07/31 00:12:58;;;;;;;3.95;2.60;;;;;;;18.20;64.92;93220.84;2071252;69;20148;-75
2022/07/31 00:15:24;;;;;;;6.63;2.70;;;;;;;18.23;64.50;93222.38;2071198;69;20191;-74
2022/07/31 00:17:51;;;;;;;6.38;2.33;;;;;;;18.00;65.59;93220.72;2071365;69;20584;-76
2022/07/31 00:20:19;;;;;;;3.17;2.35;;;;;;;18.15;64.69;93216.34;2071845;69;20577;-75
2022/07/31 00:22:48;;;;;;;3.42;2.63;;;;;;;17.73;66.93;93213.16;2071656;69;20152;-75
2022/07/31 00:25:15;;;;;;;5.40;2.65;;;;;;;17.92;65.33;93212.59;2071248;69;20206;-74
2022/07/31 00:27:43;;;;;;;4.50;2.60;;;;;;;17.80;66.00;93205.63;2071954;69;20129;-74
2022/07/31 00:30:12;;;;;;;5.07;2.55;;;;;;;17.90;66.30;93203.22;2068578;69;20136;-74
2022/07/31 00:32:38;;;;;;;5.72;2.83;;;;;;;17.74;66.18;93201.16;2071860;69;20156;-74
2022/07/31 00:35:05;;;;;;;7.65;2.40;;;;;;;17.93;65.60;93201.91;2065413;69;20519;-74
2022/07/31 00:37:37;;;;;;;6.03;2.63;;;;;;;17.87;66.62;93198.78;2068448;69;20228;-75
2022/07/31 00:40:06;;;;;;;6.70;2.47;;;;;;;17.81;67.02;93190.75;2071687;69;20175;-75
2022/07/31 00:42:32;;;;;;;4.40;2.40;;;;;;;17.85;65.67;93190.19;2071715;69;20183;-76
2022/07/31 00:45:01;;;;;;;2.80;2.50;;;;;;;17.75;65.63;93194.06;2072071;69;20217;-76
2022/07/31 00:47:27;;;;;;;5.70;2.67;;;;;;;17.71;65.59;93196.00;2065465;69;20128;-77
2022/07/31 00:49:55;;;;;;;3.58;2.67;;;;;;;17.49;66.63;93199.34;2068226;69;20155;-76
2022/07/31 00:52:21;;;;;;;3.40;2.58;;;;;;;17.71;66.16;93190.28;2068234;69;20152;-75
2022/07/31 00:54:51;;;;;;;4.63;2.72;;;;;;;17.71;66.74;93201.69;2068116;69;20156;-75
2022/07/31 00:57:18;;;;;;;3.80;2.38;;;;;;;17.71;65.99;93196.00;2071401;69;20144;-74
2022/07/31 00:59:44;;;;;;;5.57;2.50;;;;;;;17.92;63.93;93204.03;2071096;69;20163;-75
2022/07/31 01:02:22;;;;;;;6.43;2.20;;;;;;;17.99;64.17;93199.31;2068237;69;20171;-75
2022/07/31 01:04:50;;;;;;;2.78;2.38;;;;;;;18.00;63.71;93195.06;2071452;69;20148;-75
2022/07/31 01:07:20;;;;;;;3.22;2.70;;;;;;;17.81;65.19;93190.75;2071561;69;20259;-75
2022/07/31 01:09:52;;;;;;;3.78;3.05;;;;;;;17.89;64.42;93188.25;2071775;69;20148;-75
2022/07/31 01:12:48;;;;;;;5.07;2.58;;;;;;;17.73;64.20;93184.66;2068311;69;20159;-74
2022/07/31 01:15:19;;;;;;;4.47;2.47;;;;;;;17.94;64.05;93194.84;2071577;69;20227;-74
2022/07/31 01:17:50;;;;;;;5.45;2.40;;;;;;;17.81;64.52;93187.88;2068233;69;20692;-75
2022/07/31 01:20:20;;;;;;;3.10;2.50;;;;;;;18.12;62.36;93186.31;2068412;69;20164;-74
2022/07/31 01:23:14;;;;;;;3.92;2.55;;;;;;;17.88;63.52;93178.22;2071796;69;20198;-74
2022/07/31 01:26:01;;;;;;;3.60;2.40;;;;;;;18.02;63.77;93183.78;2071662;69;20152;-74
2022/07/31 01:29:08;;;;;;;4.45;2.53;;;;;;;17.89;62.93;93178.97;2071329;69;20593;-75
2022/07/31 01:32:07;;;;;;;3.93;2.60;;;;;;;17.74;64.19;93180.50;2071952;69;20174;-75
2022/07/31 01:34:42;;;;;;;4.75;2.80;;;;;;;17.77;64.01;93185.59;2068101;69;20259;-74
2022/07/31 01:37:14;;;;;;;3.88;2.35;;;;;;;17.86;63.60;93183.09;2068214;69;20153;-75
2022/07/31 01:39:49;;;;;;;2.75;2.42;;;;;;;17.93;62.99;93182.72;2071744;69;20156;-75
2022/07/31 01:42:20;;;;;;;4.90;2.45;;;;;;;17.94;63.03;93180.59;2071799;69;20171;-75
2022/07/31 01:44:55;;;;;;;5.72;2.42;;;;;;;17.95;62.47;93171.38;2068341;69;20254;-74
2022/07/31 01:47:26;;;;;;;4.10;2.30;;;;;;;17.91;63.35;93170.50;2068011;69;20205;-75
2022/07/31 01:49:54;;;;;;;4.07;2.47;;;;;;;17.95;63.13;93164.97;2071236;69;20148;-75
2022/07/31 01:52:25;;;;;;;3.20;2.65;;;;;;;17.88;62.70;93154.72;2067706;69;20223;-74
2022/07/31 01:54:54;;;;;;;3.80;2.50;;;;;;;17.88;63.14;93160.41;2068013;69;20168;-75
2022/07/31 01:57:25;;;;;;;5.30;2.70;;;;;;;17.95;62.81;93153.56;2068183;69;20219;-74
2022/07/31 01:59:57;;;;;;;4.88;2.70;;;;;;;17.87;63.52;93170.31;2071343;69;20734;-75
2022/07/31 02:02:41;;;;;;;4.25;2.58;;;;;;;17.77;63.19;93162.09;2071255;69;20297;-76
2022/07/31 02:05:09;;;;;;;3.58;2.70;;;;;;;17.84;62.56;93165.94;2071435;69;20248;-78
2022/07/31 02:07:40;;;;;;;3.08;2.30;;;;;;;17.95;63.32;93165.69;2067917;69;20148;-75
2022/07/31 02:10:09;;;;;;;5.38;2.60;;;;;;;18.01;62.91;93163.09;2067925;69;20565;-78
2022/07/31 02:12:36;;;;;;;3.38;2.47;;;;;;;17.91;63.32;93156.97;2067231;69;20160;-77
2022/07/31 02:15:08;;;;;;;3.70;2.50;;;;;;;17.97;63.31;93159.38;2067351;69;20164;-76
2022/07/31 02:17:37;;;;;;;5.07;2.53;;;;;;;17.91;63.47;93151.28;2067256;69;20183;-75
2022/07/31 02:20:38;;;;;;;4.32;2.78;;;;;;;17.90;64.62;93152.66;2061630;69;20540;-75
2022/07/31 02:23:04;;;;;;;4.95;3.22;;;;;;;17.92;63.76;93144.22;2067889;69;20222;-76
2022/07/31 02:25:34;;;;;;;3.72;2.58;;;;;;;17.95;63.41;93148.59;2067371;69;20153;-76
2022/07/31 02:28:06;;;;;;;3.53;2.40;;;;;;;17.97;63.77;93160.09;2067380;69;20177;-76
2022/07/31 02:30:34;;;;;;;4.88;2.40;;;;;;;18.00;62.68;93155.91;2067278;69;20232;-75
2022/07/31 02:33:01;;;;;;;4.38;2.90;;;;;;;17.86;62.72;93157.47;2067161;69;20140;-78
2022/07/31 02:35:27;;;;;;;4.25;2.72;;;;;;;17.88;62.42;93166.13;2067296;69;20287;-76
2022/07/31 02:37:54;;;;;;;3.33;2.75;;;;;;;17.95;62.11;93168.53;2067284;69;20225;-79
2022/07/31 02:40:24;;;;;;;3.42;2.80;;;;;;;17.92;62.97;93169.84;2067333;69;20195;-76
2022/07/31 02:42:50;;;;;;;3.95;2.60;;;;;;;17.93;63.11;93159.91;2067319;69;20240;-76
2022/07/31 02:45:17;;;;;;;3.88;2.55;;;;;;;17.96;61.84;93166.41;2067738;69;20270;-75
2022/07/31 02:47:43;;;;;;;3.55;2.30;;;;;;;17.97;61.72;93159.38;2067008;69;20141;-75
2022/07/31 02:50:15;;;;;;;4.80;2.50;;;;;;;17.98;63.29;93158.69;2067284;69;20172;-76
2022/07/31 02:52:42;;;;;;;2.58;2.25;;;;;;;17.91;64.30;93153.41;2067330;69;20159;-76
2022/07/31 02:55:09;;;;;;;3.55;2.58;;;;;;;17.89;64.68;93153.31;2067847;69;20211;-76
2022/07/31 02:57:35;;;;;;;4.68;2.60;;;;;;;17.83;64.21;93156.66;2067300;69;20658;-76
2022/07/31 03:00:01;;;;;;;4.63;2.60;;;;;;;17.89;64.70;93156.19;2067062;69;20165;-76
2022/07/31 03:02:28;;;;;;;3.58;2.90;;;;;;;17.54;65.98;93160.41;2067088;69;20148;-75
2022/07/31 03:04:54;;;;;;;4.82;3.00;;;;;;;17.78;64.58;93158.63;2067776;69;20173;-76
2022/07/31 03:07:19;;;;;;;4.78;2.58;;;;;;;17.77;65.55;93154.28;2067200;69;20144;-76
2022/07/31 03:09:46;;;;;;;5.03;2.80;;;;;;;17.60;66.15;93149.28;2067192;69;20162;-76
2022/07/31 03:12:31;;;;;;;3.30;2.67;;;;;;;17.78;65.59;93150.06;2069295;69;20146;-76
2022/07/31 03:14:58;;;;;;;3.88;2.40;;;;;;;17.83;65.59;93139.56;2067859;69;20156;-77
2022/07/31 03:17:24;;;;;;;5.55;2.40;;;;;;;17.87;65.11;93142.59;2067664;69;20159;-76
2022/07/31 03:19:53;;;;;;;4.15;2.85;;;;;;;17.73;65.05;93139.91;2067665;69;20143;-76
2022/07/31 03:22:19;;;;;;;6.75;3.38;;;;;;;17.48;65.56;93146.66;2067685;69;20600;-76
2022/07/31 03:24:45;;;;;;;6.28;2.85;;;;;;;17.60;65.31;93142.84;2067754;69;20148;-75
2022/07/31 03:27:10;;;;;;;6.78;2.90;;;;;;;17.73;64.76;93142.75;2067762;69;20148;-77
2022/07/31 03:29:39;;;;;;;5.20;2.72;;;;;;;17.60;65.57;93143.59;2071012;69;20163;-75
2022/07/31 03:32:05;;;;;;;3.00;2.70;;;;;;;17.70;64.57;93138.31;2064909;69;20723;-76
2022/07/31 03:34:32;;;;;;;3.40;2.58;;;;;;;17.52;65.17;93137.56;2067542;69;20264;-76
2022/07/31 03:36:57;;;;;;;4.65;2.70;;;;;;;17.53;64.92;93133.31;2067629;69;20243;-76
2022/07/31 03:39:24;;;;;;;3.10;2.47;;;;;;;17.66;64.36;93143.84;2070990;69;20229;-79
2022/07/31 03:41:54;;;;;;;6.13;2.80;;;;;;;17.59;64.76;93139.25;2067692;69;20611;-79
2022/07/31 03:44:20;;;;;;;5.20;2.60;;;;;;;17.66;63.63;93141.00;2070981;69;20152;-77
2022/07/31 03:46:46;;;;;;;4.32;2.90;;;;;;;17.71;63.76;93145.47;2067647;69;20128;-77
2022/07/31 03:49:13;;;;;;;6.20;2.70;;;;;;;17.78;63.15;93141.53;2067511;69;20231;-76
2022/07/31 03:51:39;;;;;;;3.95;2.75;;;;;;;17.72;63.94;93137.66;2067591;69;20596;-78
2022/07/31 03:54:05;;;;;;;3.42;2.65;;;;;;;17.77;63.81;93128.66;2071032;69;20117;-75
2022/07/31 03:56:54;;;;;;;4.20;2.70;;;;;;;17.66;64.72;93145.94;2069005;69;20492;-76
2022/07/31 03:59:21;;;;;;;5.25;3.13;;;;;;;17.59;64.64;93142.09;2068193;69;20156;-75
2022/07/31 04:01:47;;;;;;;4.43;2.35;;;;;;;17.67;64.44;93147.41;2071562;69;20164;-75
2022/07/31 04:04:18;;;;;;;4.40;2.58;;;;;;;17.58;64.76;93143.50;2068073;69;20226;-75
2022/07/31 04:06:55;;;;;;;3.95;2.70;;;;;;;17.61;63.71;93144.31;2071607;69;20546;-75
2022/07/31 04:09:20;;;;;;;4.28;3.00;;;;;;;17.66;64.28;93152.38;2068195;69;20209;-75
2022/07/31 04:11:47;;;;;;;3.88;2.80;;;;;;;17.73;63.32;93154.13;2068038;69;20231;-76
2022/07/31 04:14:13;;;;;;;4.20;2.85;;;;;;;17.68;63.57;93149.59;2068122;69;20589;-77
2022/07/31 04:16:39;;;;;;;4.07;2.42;;;;;;;17.75;62.88;93157.06;2068148;69;20163;-75
2022/07/31 04:19:04;;;;;;;3.83;2.88;;;;;;;17.61;63.62;93161.41;2071498;69;20327;-77
2022/07/31 04:21:30;;;;;;;3.97;2.92;;;;;;;17.52;63.34;93155.34;2071463;69;20450;-77
2022/07/31 04:23:56;;;;;;;3.15;2.65;;;;;;;17.74;62.14;93157.72;2071489;69;20144;-77
2022/07/31 04:26:40;;;;;;;3.65;2.97;;;;;;;17.56;63.58;93166.19;2071706;69;20602;-76
2022/07/31 04:29:07;;;;;;;3.90;3.22;;;;;;;17.64;62.63;93163.69;2068172;69;20179;-75
2022/07/31 04:31:35;;;;;;;4.43;2.80;;;;;;;17.74;62.61;93169.09;2068078;69;20148;-77
2022/07/31 04:34:02;;;;;;;3.55;2.60;;;;;;;17.77;63.91;93167.78;2067982;69;20184;-76
2022/07/31 04:36:27;;;;;;;4.20;2.53;;;;;;;17.83;62.75;93161.63;2068054;69;20152;-76
2022/07/31 04:38:53;;;;;;;3.10;2.70;;;;;;;17.80;62.46;93157.97;2068126;69;20140;-75
2022/07/31 04:41:19;;;;;;;4.88;2.92;;;;;;;17.72;62.61;93151.88;2068125;69;20132;-75
2022/07/31 04:43:45;;;;;;;6.32;2.78;;;;;;;17.69;62.41;93161.75;2065294;69;20151;-75
2022/07/31 04:46:11;;;;;;;4.93;2.90;;;;;;;17.82;61.96;93158.03;2068146;69;20723;-76
2022/07/31 04:48:37;;;;;;;5.13;2.88;;;;;;;17.80;64.19;93160.06;2067968;69;20164;-76
2022/07/31 04:51:03;;;;;;;5.57;2.67;;;;;;;17.81;65.11;93158.69;2068109;69;20141;-75
2022/07/31 04:53:29;;;;;;;5.25;2.78;;;;;;;17.91;64.47;93159.81;2068127;69;20645;-78
2022/07/31 04:58:40;;;;;;;5.30;3.30;;;;;;;17.91;64.16;93171.22;2067991;69;20171;-77
2022/07/31 05:01:06;;;;;;;6.00;3.25;;;;;;;17.86;65.16;93168.84;2071502;69;20164;-75
2022/07/31 05:03:32;;;;;;;3.50;2.97;;;;;;;17.88;65.54;93172.53;2067890;69;20222;-75
2022/07/31 05:06:11;;;;;;;4.35;2.75;;;;;;;17.92;65.17;93157.72;2071468;69;20218;-76
2022/07/31 05:08:36;;;;;;;6.60;3.10;;;;;;;17.83;64.93;93168.06;2070886;69;20186;-75
2022/07/31 05:13:51;;;;;;;5.85;3.25;;;;;;;17.83;63.32;93164.47;2067986;69;20175;-76
2022/07/31 05:16:18;;;;;;;5.50;2.92;;;;;;;17.79;63.35;93162.19;2071498;69;20247;-77
2022/07/31 05:18:44;;;;;;;4.13;3.10;;;;;;;17.89;63.32;93165.44;2071377;69;20222;-77
2022/07/31 05:21:32;;;;;;;5.55;2.75;;;;;;;17.96;63.51;93160.72;2071411;69;20591;-76
2022/07/31 05:24:17;;;;;;;3.83;2.63;;;;;;;17.97;64.00;93165.06;2071167;69;20508;-76
2022/07/31 05:26:53;;;;;;;5.00;3.17;;;;;;;18.01;64.31;93165.97;2068098;69;20128;-77
2022/07/31 05:29:19;;;;;;;3.35;2.60;;;;;;;18.01;64.03;93156.69;2067935;69;20190;-78
2022/07/31 05:31:44;;;;;;;3.22;2.60;;;;;;;17.86;62.77;93160.31;2067926;69;20152;-76
2022/07/31 05:34:10;;;;;;;3.30;2.80;;;;;;;17.86;63.36;93169.59;2067785;69;20567;-76
2022/07/31 05:36:35;;;;;;;4.43;2.70;;;;;;;18.01;62.11;93168.06;2067883;69;20155;-76
2022/07/31 05:39:01;;;;;;;4.88;2.78;;;;;;;18.12;61.38;93157.81;2067920;69;20184;-76
2022/07/31 05:42:02;;;;;;;4.32;2.83;;;;;;;18.15;63.81;93165.06;2059896;69;20153;-76
2022/07/31 05:44:44;;;;;;;4.00;2.53;;;;;;;18.17;66.13;93165.13;2066897;69;20140;-76
2022/07/31 05:47:10;;;;;;;5.93;3.22;;;;;;;18.17;63.19;93171.56;2065099;69;20159;-76
2022/07/31 05:49:37;;;;;;;5.43;2.80;;;;;;;18.20;64.71;93167.41;2067821;69;20253;-75
2022/07/31 05:52:04;;;;;;;5.70;2.70;;;;;;;18.17;65.35;93171.56;2067887;69;20596;-75
2022/07/31 05:54:31;;;;;;;4.55;2.90;;;;;;;18.15;65.84;93174.34;2067897;69;20180;-76
2022/07/31 05:57:15;;;;;;;5.28;2.58;;;;;;;18.11;64.96;93171.31;2071311;69;20229;-76
2022/07/31 05:59:41;;;;;;;3.08;2.47;;;;;;;18.24;63.37;93161.88;2071331;69;20140;-80
2022/07/31 06:02:06;;;;;;;4.00;2.65;;;;;;;18.17;64.59;93157.31;2067859;69;20535;-74
2022/07/31 06:04:51;;;;;;;3.08;2.53;;;;;;;18.27;63.52;93162.69;2067956;69;20553;-75
2022/07/31 06:07:17;;;;;;;4.53;3.22;;;;;;;18.18;63.17;93155.19;2067882;69;20163;-73
2022/07/31 06:09:43;;;;;;;4.88;3.10;;;;;;;18.33;63.50;93154.41;2067882;69;20231;-75
2022/07/31 06:12:09;;;;;;;5.43;2.83;;;;;;;18.39;64.79;93153.88;2067814;69;20150;-76
2022/07/31 06:14:34;;;;;;;3.10;2.65;;;;;;;18.45;62.85;93151.28;2071217;69;20596;-76
2022/07/31 06:17:39;;;;;;;4.95;2.72;;;;;;;18.45;62.74;93152.00;2068558;69;20197;-75
2022/07/31 06:20:10;;;;;;;3.70;2.70;;;;;;;18.44;62.58;93155.50;2067798;69;20158;-74
2022/07/31 06:22:42;;;;;;;3.63;2.80;;;;;;;18.55;61.20;93157.34;2067879;69;20156;-75
2022/07/31 06:25:09;;;;;;;7.35;3.08;;;;;;;18.67;61.35;93159.97;2067906;69;20290;-75
2022/07/31 06:27:36;;;;;;;5.07;2.47;;;;;;;18.74;61.66;93161.69;2067943;69;20159;-75
2022/07/31 06:30:06;;;;;;;6.30;2.95;;;;;;;18.59;61.73;93166.06;2067876;69;20222;-76
2022/07/31 06:32:33;;;;;;;4.63;2.63;;;;;;;18.63;61.66;93168.34;2064949;69;20220;-76
2022/07/31 06:35:00;;;;;;;3.28;2.58;;;;;;;18.69;63.52;93168.59;2067855;69;20160;-76
2022/07/31 06:37:27;;;;;;;3.78;2.75;;;;;;;18.66;61.39;93172.75;2067769;69;20339;-75
2022/07/31 06:39:54;;;;;;;3.47;2.72;;;;;;;18.82;61.51;93173.38;2067976;69;20243;-75
2022/07/31 06:42:38;;;;;;;4.97;2.80;;;;;;;18.64;63.46;93176.25;2071265;69;20573;-75
2022/07/31 06:45:04;;;;;;;3.38;3.00;;;;;;;18.51;64.22;93180.03;2067844;69;20156;-76
2022/07/31 06:47:50;;;;;;;3.30;2.80;;;;;;;18.73;64.26;93178.03;2070859;69;20214;-75
2022/07/31 06:50:26;;;;;;;5.28;2.83;;;;;;;18.84;63.47;93175.59;2067881;69;20156;-76
2022/07/31 06:53:02;;;;;;;4.05;3.03;;;;;;;18.70;64.17;93190.06;2067789;69;20619;-77
2022/07/31 06:55:27;;;;;;;3.55;2.70;;;;;;;18.78;61.12;93196.03;2067852;69;20237;-79
2022/07/31 06:57:53;;;;;;;6.53;2.80;;;;;;;18.90;61.27;93195.78;2067814;69;20600;-75
2022/07/31 07:00:19;;;;;;;3.42;3.10;;;;;;;18.66;65.34;93195.56;2067767;69;20152;-76
2022/07/31 07:02:44;;;;;;;5.18;3.28;;;;;;;18.72;62.90;93184.41;2067610;69;20199;-76
2022/07/31 07:05:10;;;;;;;4.28;3.10;;;;;;;18.86;64.06;93187.06;2067824;69;20235;-77
2022/07/31 07:07:36;;;;;;;4.47;3.03;;;;;;;18.93;62.61;93180.94;2067840;69;20175;-73
2022/07/31 07:10:06;;;;;;;3.72;2.92;;;;;;;19.02;62.29;93190.53;2067735;69;20156;-75
2022/07/31 07:12:54;;;;;;;3.65;3.00;;;;;;;18.86;63.71;93190.66;2068419;69;20215;-77
2022/07/31 07:15:21;;;;;;;4.07;3.58;;;;;;;18.80;64.71;93193.28;2067810;69;20217;-78
2022/07/31 07:17:46;;;;;;;5.47;3.22;;;;;;;18.99;63.60;93189.00;2067659;69;20246;-75
2022/07/31 07:20:17;;;;;;;4.18;3.30;;;;;;;18.95;63.31;93200.25;2070585;69;20187;-76
2022/07/31 07:22:43;;;;;;;3.78;3.40;;;;;;;18.94;64.88;93185.25;2067784;69;20592;-76
2022/07/31 07:25:11;;;;;;;4.60;3.47;;;;;;;18.99;64.09;93189.72;2067727;69;20174;-76
2022/07/31 07:27:37;;;;;;;4.97;3.10;;;;;;;18.96;65.15;93193.88;2067689;69;20247;-76
2022/07/31 07:30:07;;;;;;;3.40;3.10;;;;;;;18.94;64.64;93190.97;2067699;69;20187;-76
2022/07/31 07:32:33;;;;;;;5.18;3.80;;;;;;;18.78;64.97;93187.50;2064966;69;20643;-76
2022/07/31 07:34:59;;;;;;;4.00;3.08;;;;;;;18.91;63.04;93172.31;2068237;69;20292;-77
2022/07/31 07:37:44;;;;;;;8.00;3.00;;;;;;;19.18;62.64;93173.28;2065872;69;20609;-76
2022/07/31 07:40:10;;;;;;;10.90;3.42;;;;;;;19.28;63.00;93173.63;2068284;69;20239;-77
2022/07/31 07:42:36;;;;;;;5.75;3.63;;;;;;;19.15;63.46;93171.72;2068319;69;20148;-77
2022/07/31 07:45:03;;;;;;;6.22;3.17;;;;;;;19.41;60.45;93169.81;2068186;69;20610;-77
2022/07/31 07:47:29;;;;;;;5.70;3.45;;;;;;;19.43;62.75;93164.22;2068086;69;20681;-76
2022/07/31 07:49:54;;;;;;;7.03;3.60;;;;;;;19.54;60.86;93173.84;2068263;69;20144;-77
2022/07/31 07:52:38;;;;;;;7.45;3.22;;;;;;;19.60;62.27;93165.50;2071531;69;20519;-77
2022/07/31 07:55:36;;;;;;;6.53;2.80;;;;;;;19.68;62.44;93165.06;2067068;69;20604;-77
2022/07/31 07:58:20;;;;;;;4.60;3.00;;;;;;;19.78;60.75;93168.28;2071555;69;20151;-77
2022/07/31 08:01:09;;;;;;;4.90;3.08;;;;;;;19.92;61.10;93159.44;2071118;69;20253;-76
2022/07/31 08:03:34;;;;;;;4.75;3.20;;;;;;;20.04;60.81;93163.44;2067986;69;20535;-77
2022/07/31 08:06:00;;;;;;;2.92;2.67;;;;;;;20.20;59.82;93163.22;2068064;69;20163;-77
2022/07/31 08:08:26;;;;;;;6.00;3.00;;;;;;;20.24;60.68;93160.50;2068157;69;20178;-77
2022/07/31 08:11:21;;;;;;;3.85;3.05;;;;;;;20.20;59.15;93162.50;2068983;69;20283;-77
2022/07/31 08:13:56;;;;;;;3.30;3.00;;;;;;;19.68;58.40;93170.78;2068195;69;20224;-77
2022/07/31 08:16:55;;;;;;;5.07;3.03;;;;;;;19.66;59.11;93168.59;2063437;69;20527;-77
2022/07/31 08:19:20;;;;;;;5.63;3.13;;;;;;;19.65;58.67;93157.81;2067994;69;20155;-77
2022/07/31 08:21:47;;;;;;;7.20;3.17;;;;;;;19.94;58.00;93162.38;2068069;69;20140;-77
2022/07/31 08:24:15;;;;;;;6.45;3.05;;;;;;;19.92;58.28;93162.31;2068087;69;20140;-77
2022/07/31 08:29:26;;;;;;;3.95;3.50;;;;;;;20.08;58.70;93162.84;2068102;69;20140;-76
2022/07/31 08:31:53;;;;;;;4.25;3.00;;;;;;;20.42;58.71;93159.63;2068133;69;20144;-77
2022/07/31 08:34:45;;;;;;;6.68;3.20;;;;;;;20.61;58.90;93149.50;2068927;69;20247;-77
2022/07/31 08:37:12;;;;;;;3.78;3.08;;;;;;;20.54;57.74;93155.06;2068035;69;20714;-77
2022/07/31 08:39:38;;;;;;;4.78;3.47;;;;;;;20.51;59.83;93152.81;2068193;69;20229;-77
2022/07/31 08:42:06;;;;;;;4.85;2.80;;;;;;;20.90;57.31;93153.97;2071384;69;20526;-77
2022/07/31 08:44:36;;;;;;;3.15;2.60;;;;;;;21.13;55.92;93147.50;2068048;69;20153;-78
2022/07/31 08:47:08;;;;;;;8.63;3.72;;;;;;;20.84;55.77;93145.94;2068152;69;20225;-78
2022/07/31 08:49:45;;;;;;;6.40;3.35;;;;;;;21.37;56.08;93150.34;2067935;69;20186;-76
2022/07/31 08:52:19;;;;;;;4.05;2.80;;;;;;;21.59;55.26;93149.50;2068016;69;20128;-76
2022/07/31 08:54:55;;;;;;;4.03;2.90;;;;;;;22.03;54.64;93142.03;2065594;69;20160;-76
2022/07/31 08:57:22;;;;;;;4.03;2.75;;;;;;;22.51;49.96;93147.56;2068254;69;20192;-76
2022/07/31 08:59:51;;;;;;;5.55;2.97;;;;;;;22.97;51.28;93150.03;2068056;69;20545;-77
2022/07/31 09:02:17;;;;;;;3.00;2.45;;;;;;;22.98;49.00;93137.13;2068042;69;20132;-77
2022/07/31 09:05:01;;;;;;;6.10;2.60;;;;;;;23.67;50.46;93139.97;2071487;69;20242;-77
2022/07/31 09:07:27;;;;;;;3.90;2.53;;;;;;;24.18;47.86;93138.00;2071408;69;20623;-77
2022/07/31 09:09:53;;;;;;;3.33;2.50;;;;;;;24.80;46.07;93141.19;2071546;69;20485;-77
2022/07/31 09:12:31;;;;;;;5.00;2.30;;;;;;;24.54;43.78;93138.63;2067953;69;20225;-77
2022/07/31 09:15:02;;;;;;;2.30;2.10;;;;;;;24.85;43.63;93147.72;2071365;69;20472;-77
2022/07/31 09:17:33;;;;;;;4.63;2.20;;;;;;;25.31;43.06;93147.66;2067877;69;20141;-77
2022/07/31 09:19:59;;;;;;;4.40;2.25;;;;;;;25.59;43.01;93147.28;2068111;69;20178;-78
2022/07/31 09:22:30;;;;;;;4.18;2.30;;;;;;;24.84;42.66;93140.53;2065367;69;20205;-77
2022/07/31 09:25:11;;;;;;;2.63;2.15;;;;;;;25.09;43.50;93138.72;2068108;69;20599;-77
2022/07/31 09:27:37;;;;;;;5.50;2.20;;;;;;;24.65;43.80;93147.41;2068066;69;20240;-77
2022/07/31 09:30:04;;;;;;;2.78;2.47;;;;;;;24.38;43.36;93155.66;2068030;69;20584;-77
2022/07/31 09:32:50;;;;;;;3.65;2.38;;;;;;;24.30;44.15;93149.72;2065603;69;20156;-77
2022/07/31 09:35:22;;;;;;;4.88;2.30;;;;;;;24.11;44.96;93147.97;2068033;69;20168;-76
2022/07/31 09:37:48;;;;;;;2.85;2.28;;;;;;;24.64;45.22;93146.69;2069803;69;20233;-76
2022/07/31 09:40:42;;;;;;;4.20;2.05;;;;;;;24.98;46.20;93142.88;2072854;69;20151;-76
2022/07/31 09:43:23;;;;;;;3.85;2.45;;;;;;;24.87;45.53;93147.75;2077211;69;20164;-76
2022/07/31 09:46:00;;;;;;;5.20;2.40;;;;;;;24.38;44.65;93149.16;2073796;69;20144;-75
2022/07/31 09:48:26;;;;;;;3.50;2.33;;;;;;;24.27;44.97;93145.34;2073100;69;20152;-76
2022/07/31 09:50:58;;;;;;;3.63;2.25;;;;;;;24.15;45.23;93140.13;2071845;69;20140;-77
2022/07/31 09:53:41;;;;;;;3.63;2.33;;;;;;;24.84;44.59;93135.50;2068775;69;20148;-77
2022/07/31 09:56:31;;;;;;;4.15;2.47;;;;;;;25.60;44.28;93128.56;2068244;69;20155;-77
2022/07/31 09:58:59;;;;;;;2.90;2.38;;;;;;;25.06;44.15;93140.09;2068439;69;20167;-76
2022/07/31 10:01:25;;;;;;;3.10;2.40;;;;;;;24.84;43.99;93134.78;2065435;69;20239;-77
2022/07/31 10:03:54;;;;;;;3.47;2.25;;;;;;;25.04;44.60;93135.03;2068012;69;20247;-77
2022/07/31 10:06:24;;;;;;;2.80;2.40;;;;;;;25.27;45.08;93144.00;2067895;69;20461;-77
2022/07/31 10:08:52;;;;;;;2.55;2.33;;;;;;;25.20;45.44;93143.22;2067975;69;20356;-77
2022/07/31 10:11:38;;;;;;;2.97;2.42;;;;;;;25.23;45.74;93141.78;2067993;69;20245;-77
2022/07/31 10:14:22;;;;;;;5.07;2.45;;;;;;;25.38;46.63;93131.16;2067993;69;20171;-77
2022/07/31 10:16:53;;;;;;;5.88;2.83;;;;;;;24.87;46.39;93121.09;2067988;69;20136;-77
2022/07/31 10:19:57;;;;;;;4.15;2.70;;;;;;;25.19;46.46;93135.97;2068049;69;20174;-77
2022/07/31 10:22:44;;;;;;;3.30;2.80;;;;;;;25.80;44.90;93133.13;2071277;69;20684;-77
2022/07/31 10:25:19;;;;;;;3.22;2.90;;;;;;;25.20;45.01;93137.44;2067154;69;20250;-77
2022/07/31 10:27:47;;;;;;;4.05;2.80;;;;;;;25.74;44.75;93130.16;2067604;69;20148;-76
2022/07/31 10:30:14;;;;;;;5.03;2.55;;;;;;;25.68;44.96;93135.84;2067822;69;20563;-76
2022/07/31 10:32:44;;;;;;;3.22;2.50;;;;;;;25.00;45.46;93134.25;2067831;69;20522;-76
2022/07/31 10:35:56;;;;;;;4.00;3.28;;;;;;;24.51;46.73;93134.28;2071295;69;20156;-77
2022/07/31 10:39:30;;;;;;;3.57;3.07;;;;;;;24.68;47.20;93131.63;2070859;69;20218;-76
2022/07/31 10:42:18;;;;;;;4.25;2.70;;;;;;;25.01;46.05;93127.06;2067885;69;20264;-75
2022/07/31 10:45:01;;;;;;;3.58;2.83;;;;;;;25.37;45.46;93129.00;2068343;69;20287;-76
2022/07/31 10:47:40;;;;;;;9.33;3.00;;;;;;;25.89;44.83;93139.69;2068371;69;20498;-77
2022/07/31 10:50:24;;;;;;;4.30;3.00;;;;;;;26.18;44.07;93132.06;2071956;69;20332;-77
2022/07/31 10:53:17;;;;;;;4.45;2.78;;;;;;;25.97;45.28;93137.63;2068218;69;20174;-75
2022/07/31 10:56:12;;;;;;;4.88;2.85;;;;;;;25.66;44.55;93130.78;2071810;69;20187;-76
2022/07/31 10:59:09;;;;;;;3.50;2.90;;;;;;;25.20;45.56;93128.81;2061952;69;20250;-77
2022/07/31 11:01:53;;;;;;;3.80;2.55;;;;;;;25.42;45.99;93134.09;2068369;69;20179;-77
2022/07/31 11:05:06;;;;;;;3.53;2.63;;;;;;;25.56;46.02;93113.38;2057441;69;20175;-77
2022/07/31 11:08:07;;;;;;;3.40;2.85;;;;;;;25.55;45.25;93127.06;2071976;69;20168;-74
2022/07/31 11:10:52;;;;;;;4.13;3.00;;;;;;;25.31;45.80;93118.84;2072282;69;20634;-77
2022/07/31 11:13:47;;;;;;;4.60;2.78;;;;;;;24.75;45.90;93116.66;2072226;69;20267;-76
2022/07/31 11:16:32;;;;;;;4.20;2.90;;;;;;;25.25;46.02;93118.06;2072125;69;20179;-77
2022/07/31 11:19:35;;;;;;;3.65;2.78;;;;;;;25.34;46.41;93122.50;2069450;69;20148;-76
2022/07/31 11:22:14;;;;;;;3.47;3.17;;;;;;;24.96;47.62;93120.53;2072006;69;20140;-76
2022/07/31 11:24:57;;;;;;;3.67;3.25;;;;;;;24.90;47.63;93117.56;2072091;69;20593;-77
2022/07/31 11:27:31;;;;;;;4.35;3.22;;;;;;;24.70;47.88;93126.66;2068836;69;20140;-77
2022/07/31 11:30:07;;;;;;;3.88;3.35;;;;;;;24.45;48.90;93116.19;2072055;69;20147;-76
2022/07/31 11:32:32;;;;;;;5.22;3.40;;;;;;;25.08;47.87;93114.25;2071544;69;20137;-76
2022/07/31 11:34:58;;;;;;;4.03;3.15;;;;;;;27.57;44.30;93125.06;2071671;69;20133;-76
2022/07/31 11:37:27;;;;;;;3.80;3.10;;;;;;;27.37;43.30;93119.94;2071680;69;20145;-75
2022/07/31 11:39:54;;;;;;;3.33;3.03;;;;;;;29.53;39.57;93122.97;2071653;69;20152;-75
2022/07/31 11:42:21;;;;;;;3.50;3.20;;;;;;;28.08;40.18;93113.66;2071720;69;20201;-77
2022/07/31 11:44:47;;;;;;;5.25;3.00;;;;;;;28.34;39.96;93122.41;2071798;69;20491;-76
2022/07/31 11:47:13;;;;;;;3.45;3.13;;;;;;;30.61;38.16;93116.59;2071721;69;20198;-77
2022/07/31 11:49:39;;;;;;;2.80;2.60;;;;;;;31.48;33.62;93113.66;2071334;69;20582;-77
2022/07/31 11:52:07;;;;;;;3.88;2.70;;;;;;;28.71;38.89;93107.19;2070902;69;20588;-76
2022/07/31 11:54:32;;;;;;;3.60;2.78;;;;;;;28.91;39.16;93103.56;2067913;69;20191;-76
2022/07/31 11:56:58;;;;;;;3.30;2.70;;;;;;;32.75;34.14;93115.56;2071328;69;20243;-76
2022/07/31 11:59:40;;;;;;;3.20;2.90;;;;;;;29.07;38.20;93100.66;2071580;69;20151;-77
2022/07/31 12:02:11;;;;;;;7.25;2.63;;;;;;;28.97;38.79;93100.69;2071941;69;20156;-76
2022/07/31 12:04:42;;;;;;;3.10;2.80;;;;;;;28.16;39.51;93099.22;2071990;69;20164;-76
2022/07/31 12:07:12;;;;;;;5.55;2.70;;;;;;;29.15;37.67;93097.75;2072051;69;20178;-76